Time,TemperatureF,DewpointF,PressureIn,WindDirection,WindDirectionDegrees,WindSpeedMPH,WindSpeedGustMPH,Humidity,HourlyPrecipIn,Conditions,Clouds,dailyrainin,SoftwareType,DateUTC
2013-05-08 00:12:00,52.5,49.0,29.95,ESE,112,2.7,-999.0,88,-99.99,,,0.00,Acu-Link.com,2013-05-08 05:12:00,
2013-05-08 00:27:00,52.7,48.6,29.94,SSE,157,0.0,-999.0,86,-99.99,,,0.00,Acu-Link.com,2013-05-08 05:27:00,
2013-05-08 00:42:00,52.5,48.4,29.94,SE,135,1.1,-999.0,86,-99.99,,,0.00,Acu-Link.com,2013-05-08 05:42:00,
2013-05-08 00:58:00,52.0,47.6,29.94,ENE,67,0.0,-999.0,85,-99.99,,,0.00,Acu-Link.com,2013-05-08 05:58:00,
2013-05-08 01:13:00,51.1,46.7,29.94,ENE,67,0.0,-999.0,85,-99.99,,,0.00,Acu-Link.com,2013-05-08 06:13:00,
2013-05-08 01:28:00,50.7,47.0,29.94,East,90,0.0,-999.0,87,-99.99,,,0.00,Acu-Link.com,2013-05-08 06:28:00,
2013-05-08 01:44:00,50.4,46.7,29.94,ESE,112,0.0,-999.0,87,-99.99,,,0.00,Acu-Link.com,2013-05-08 06:44:00,
2013-05-08 01:59:00,50.4,47.3,29.94,SSE,157,0.0,-999.0,89,-99.99,,,0.00,Acu-Link.com,2013-05-08 06:59:00,
2013-05-08 02:14:00,49.6,46.2,29.94,East,90,0.0,-999.0,88,-99.99,,,0.00,Acu-Link.com,2013-05-08 07:14:00,
2013-05-08 02:30:00,49.6,46.5,29.94,NE,45,0.0,-999.0,89,-99.99,,,0.00,Acu-Link.com,2013-05-08 07:30:00,
2013-05-08 02:45:00,49.6,46.5,29.93,NE,45,0.0,-999.0,89,-99.99,,,0.00,Acu-Link.com,2013-05-08 07:45:00,
2013-05-08 03:00:00,49.5,46.4,29.93,NNE,22,0.0,-999.0,89,-99.99,,,0.00,Acu-Link.com,2013-05-08 08:00:00,
2013-05-08 03:15:00,49.3,45.9,29.94,West,270,0.0,-999.0,88,-99.99,,,0.00,Acu-Link.com,2013-05-08 08:15:00,
2013-05-08 03:31:00,49.1,45.7,29.93,NNW,337,0.0,-999.0,88,-99.99,,,0.00,Acu-Link.com,2013-05-08 08:31:00,
2013-05-08 03:46:00,49.1,46.3,29.93,ENE,67,0.0,-999.0,90,-99.99,,,0.00,Acu-Link.com,2013-05-08 08:46:00,
2013-05-08 04:01:00,49.1,46.6,29.93,West,270,0.0,-999.0,91,-99.99,,,0.00,Acu-Link.com,2013-05-08 09:01:00,
2013-05-08 04:16:00,49.1,46.6,29.92,ENE,67,1.1,-999.0,91,-99.99,,,0.00,Acu-Link.com,2013-05-08 09:16:00,
2013-05-08 04:31:00,49.3,47.1,29.92,NE,45,0.0,-999.0,92,-99.99,,,0.00,Acu-Link.com,2013-05-08 09:31:00,
2013-05-08 04:46:00,50.2,48.0,29.92,ENE,67,0.0,-999.0,92,-99.99,,,0.00,Acu-Link.com,2013-05-08 09:46:00,
2013-05-08 05:02:00,49.6,47.4,29.92,North,0,0.0,-999.0,92,-99.99,,,0.00,Acu-Link.com,2013-05-08 10:02:00,
2013-05-08 05:17:00,49.1,46.9,29.93,ENE,67,0.0,-999.0,92,-99.99,,,0.00,Acu-Link.com,2013-05-08 10:17:00,
2013-05-08 05:32:00,49.1,46.9,29.94,ENE,67,0.0,-999.0,92,-99.99,,,0.00,Acu-Link.com,2013-05-08 10:32:00,
2013-05-08 05:48:00,49.3,47.1,29.94,East,90,0.0,-999.0,92,-99.99,,,0.00,Acu-Link.com,2013-05-08 10:48:00,
2013-05-08 06:03:00,48.9,46.7,29.95,ENE,67,0.0,-999.0,92,-99.99,,,0.00,Acu-Link.com,2013-05-08 11:03:00,
2013-05-08 06:18:00,48.6,46.4,29.95,East,90,0.0,-999.0,92,-99.99,,,0.00,Acu-Link.com,2013-05-08 11:18:00,
2013-05-08 06:33:00,49.8,47.6,29.95,ENE,67,0.0,-999.0,92,-99.99,,,0.00,Acu-Link.com,2013-05-08 11:33:00,
2013-05-08 06:48:00,50.7,48.2,29.95,ENE,67,0.0,-999.0,91,-99.99,,,0.00,Acu-Link.com,2013-05-08 11:48:00,
2013-05-08 07:04:00,52.0,48.9,29.96,ENE,67,0.0,-999.0,89,-99.99,,,0.00,Acu-Link.com,2013-05-08 12:04:00,
2013-05-08 07:19:00,54.1,49.7,29.96,ENE,67,1.7,-999.0,85,-99.99,,,0.00,Acu-Link.com,2013-05-08 12:19:00,
2013-05-08 07:34:00,56.1,51.7,29.97,East,90,0.0,-999.0,85,-99.99,,,0.00,Acu-Link.com,2013-05-08 12:34:00,
2013-05-08 07:50:00,59.7,55.2,29.97,WNW,292,0.0,-999.0,85,-99.99,,,0.00,Acu-Link.com,2013-05-08 12:50:00,
2013-05-08 08:05:00,64.0,53.6,29.98,ESE,112,0.0,-999.0,69,-99.99,,,0.00,Acu-Link.com,2013-05-08 13:05:00,
2013-05-08 08:20:00,65.8,53.3,29.97,SSE,157,4.2,-999.0,64,-99.99,,,0.00,Acu-Link.com,2013-05-08 13:20:00,
2013-05-08 08:36:00,66.4,53.0,29.98,SE,135,2.2,-999.0,62,-99.99,,,0.00,Acu-Link.com,2013-05-08 13:36:00,
2013-05-08 08:51:00,67.5,53.6,29.98,SSE,157,2.7,-999.0,61,-99.99,,,0.00,Acu-Link.com,2013-05-08 13:51:00,
2013-05-08 09:06:00,69.1,53.7,29.98,SSE,157,1.1,-999.0,58,-99.99,,,0.00,Acu-Link.com,2013-05-08 14:06:00,
2013-05-08 09:21:00,69.6,53.7,29.99,SSE,157,1.7,-999.0,57,-99.99,,,0.00,Acu-Link.com,2013-05-08 14:21:00,
2013-05-08 09:37:00,72.0,52.9,29.99,WSW,247,3.7,-999.0,51,-99.99,,,0.00,Acu-Link.com,2013-05-08 14:37:00,
2013-05-08 09:52:00,71.4,51.8,29.99,SSE,157,3.7,-999.0,50,-99.99,,,0.00,Acu-Link.com,2013-05-08 14:52:00,
2013-05-08 10:07:00,71.1,52.6,29.99,West,270,3.7,-999.0,52,-99.99,,,0.00,Acu-Link.com,2013-05-08 15:07:00,
2013-05-08 10:23:00,71.1,52.6,30.00,West,270,2.2,-999.0,52,-99.99,,,0.00,Acu-Link.com,2013-05-08 15:23:00,
2013-05-08 10:38:00,70.2,53.3,30.00,West,270,2.7,-999.0,55,-99.99,,,0.00,Acu-Link.com,2013-05-08 15:38:00,
2013-05-08 10:53:00,70.5,52.5,30.00,West,270,2.7,-999.0,53,-99.99,,,0.00,Acu-Link.com,2013-05-08 15:53:00,
2013-05-08 11:09:00,69.4,52.5,30.01,NNW,337,3.7,-999.0,55,-99.99,,,0.00,Acu-Link.com,2013-05-08 16:09:00,
2013-05-08 11:24:00,69.6,51.2,30.00,NW,315,2.7,-999.0,52,-99.99,,,0.00,Acu-Link.com,2013-05-08 16:24:00,
2013-05-08 11:39:00,70.5,51.0,30.00,WSW,247,1.7,-999.0,50,-99.99,,,0.00,Acu-Link.com,2013-05-08 16:39:00,
2013-05-08 11:54:00,70.2,51.7,30.00,NNW,337,3.2,-999.0,52,-99.99,,,0.00,Acu-Link.com,2013-05-08 16:54:00,
2013-05-08 12:10:00,70.3,52.3,30.00,West,270,0.0,-999.0,53,-99.99,,,0.00,Acu-Link.com,2013-05-08 17:10:00,
2013-05-08 12:25:00,70.0,53.6,30.00,NW,315,0.0,-999.0,56,-99.99,,,0.00,Acu-Link.com,2013-05-08 17:25:00,
2013-05-08 12:40:00,70.7,54.7,29.99,NNW,337,0.0,-999.0,57,-99.99,,,0.00,Acu-Link.com,2013-05-08 17:40:00,
2013-05-08 12:56:00,69.1,53.7,30.00,NW,315,4.2,-999.0,58,-99.99,,,0.00,Acu-Link.com,2013-05-08 17:56:00,
2013-05-08 13:11:00,69.3,55.3,30.01,NW,315,4.2,-999.0,61,-99.99,,,0.00,Acu-Link.com,2013-05-08 18:11:00,
2013-05-08 13:26:00,68.2,54.2,30.01,West,270,1.7,-999.0,61,-99.99,,,0.00,Acu-Link.com,2013-05-08 18:26:00,
2013-05-08 13:42:00,66.2,54.9,30.02,West,270,2.2,-999.0,67,-99.99,,,0.00,Acu-Link.com,2013-05-08 18:42:00,
2013-05-08 13:57:00,64.8,54.8,30.02,NW,315,2.7,-999.0,70,-99.99,,,0.00,Acu-Link.com,2013-05-08 18:57:00,
2013-05-08 14:12:00,63.3,54.5,30.00,South,180,3.7,-999.0,73,-99.99,,,0.01,Acu-Link.com,2013-05-08 19:12:00,
2013-05-08 14:27:00,61.5,54.6,29.92,SE,135,8.3,-999.0,78,-99.99,,,0.11,Acu-Link.com,2013-05-08 19:27:00,
2013-05-08 14:42:00,62.2,54.2,29.89,ESE,112,9.9,-999.0,75,-99.99,,,0.11,Acu-Link.com,2013-05-08 19:42:00,
2013-05-08 14:57:00,63.5,53.9,29.90,South,180,6.8,-999.0,71,-99.99,,,0.11,Acu-Link.com,2013-05-08 19:57:00,
2013-05-08 15:13:00,65.3,54.9,29.91,SE,135,1.7,-999.0,69,-99.99,,,0.11,Acu-Link.com,2013-05-08 20:13:00,
2013-05-08 15:28:00,66.0,54.3,29.90,ESE,112,2.2,-999.0,66,-99.99,,,0.11,Acu-Link.com,2013-05-08 20:28:00,
2013-05-08 15:43:00,66.2,54.5,29.91,SE,135,2.2,-999.0,66,-99.99,,,0.11,Acu-Link.com,2013-05-08 20:43:00,
2013-05-08 15:58:00,67.3,55.1,29.91,SE,135,1.7,-999.0,65,-99.99,,,0.11,Acu-Link.com,2013-05-08 20:58:00,
2013-05-08 16:14:00,68.0,55.4,29.90,ESE,112,1.7,-999.0,64,-99.99,,,0.11,Acu-Link.com,2013-05-08 21:14:00,
2013-05-08 16:29:00,68.4,55.3,29.90,SSE,157,3.7,-999.0,63,-99.99,,,0.11,Acu-Link.com,2013-05-08 21:29:00,
2013-05-08 16:44:00,68.4,55.7,29.89,ESE,112,4.2,-999.0,64,-99.99,,,0.11,Acu-Link.com,2013-05-08 21:44:00,
2013-05-08 17:00:00,69.4,55.8,29.89,ESE,112,2.7,-999.0,62,-99.99,,,0.11,Acu-Link.com,2013-05-08 22:00:00,
2013-05-08 17:15:00,68.9,56.2,29.89,ESE,112,3.2,-999.0,64,-99.99,,,0.11,Acu-Link.com,2013-05-08 22:15:00,
2013-05-08 17:30:00,69.6,56.0,29.89,SE,135,4.7,-999.0,62,-99.99,,,0.11,Acu-Link.com,2013-05-08 22:30:00,
2013-05-08 17:45:00,70.9,56.3,29.89,ESE,112,4.2,-999.0,60,-99.99,,,0.11,Acu-Link.com,2013-05-08 22:45:00,
2013-05-08 18:01:00,69.6,57.7,29.89,ENE,67,2.2,-999.0,66,-99.99,,,0.11,Acu-Link.com,2013-05-08 23:01:00,
2013-05-08 18:16:00,70.5,57.3,29.88,ENE,67,3.7,-999.0,63,-99.99,,,0.11,Acu-Link.com,2013-05-08 23:16:00,
2013-05-08 18:31:00,70.9,57.7,29.87,East,90,4.7,-999.0,63,-99.99,,,0.11,Acu-Link.com,2013-05-08 23:31:00,
2013-05-08 18:46:00,71.2,56.6,29.87,ESE,112,4.2,-999.0,60,-99.99,,,0.11,Acu-Link.com,2013-05-08 23:46:00,
2013-05-08 19:02:00,70.5,56.8,29.86,East,90,5.8,-999.0,62,-99.99,,,0.11,Acu-Link.com,2013-05-09 00:02:00,
2013-05-08 19:17:00,68.7,56.5,29.86,ESE,112,5.8,-999.0,65,-99.99,,,0.11,Acu-Link.com,2013-05-09 00:17:00,
2013-05-08 19:32:00,67.6,56.7,29.85,East,90,4.2,-999.0,68,-99.99,,,0.11,Acu-Link.com,2013-05-09 00:32:00,
2013-05-08 19:47:00,66.4,55.9,29.85,East,90,2.7,-999.0,69,-99.99,,,0.11,Acu-Link.com,2013-05-09 00:47:00,
2013-05-08 20:03:00,65.5,55.8,29.85,ESE,112,2.2,-999.0,71,-99.99,,,0.11,Acu-Link.com,2013-05-09 01:03:00,
2013-05-08 20:18:00,64.8,55.6,29.85,ESE,112,4.2,-999.0,72,-99.99,,,0.11,Acu-Link.com,2013-05-09 01:18:00,
2013-05-08 20:33:00,64.6,55.7,29.85,ESE,112,4.7,-999.0,73,-99.99,,,0.11,Acu-Link.com,2013-05-09 01:33:00,
2013-05-08 20:48:00,64.2,55.4,29.85,East,90,3.2,-999.0,73,-99.99,,,0.11,Acu-Link.com,2013-05-09 01:48:00,
2013-05-08 21:04:00,64.0,55.2,29.85,ESE,112,3.2,-999.0,73,-99.99,,,0.11,Acu-Link.com,2013-05-09 02:04:00,
2013-05-08 21:19:00,63.7,54.5,29.86,ESE,112,3.7,-999.0,72,-99.99,,,0.11,Acu-Link.com,2013-05-09 02:19:00,
2013-05-08 21:34:00,64.6,54.2,29.86,ESE,112,6.3,-999.0,69,-99.99,,,0.11,Acu-Link.com,2013-05-09 02:34:00,
2013-05-08 21:49:00,64.8,54.0,29.86,SE,135,5.8,-999.0,68,-99.99,,,0.11,Acu-Link.com,2013-05-09 02:49:00,
2013-05-08 22:04:00,64.6,53.8,29.87,ESE,112,3.2,-999.0,68,-99.99,,,0.11,Acu-Link.com,2013-05-09 03:04:00,
2013-05-08 22:19:00,64.2,53.4,29.87,ESE,112,1.7,-999.0,68,-99.99,,,0.11,Acu-Link.com,2013-05-09 03:19:00,
2013-05-08 22:34:00,64.2,53.4,29.87,ESE,112,5.3,-999.0,68,-99.99,,,0.11,Acu-Link.com,2013-05-09 03:34:00,
2013-05-08 22:50:00,64.4,53.6,29.87,SE,135,4.7,-999.0,68,-99.99,,,0.11,Acu-Link.com,2013-05-09 03:50:00,
2013-05-08 23:05:00,64.6,53.8,29.88,SSE,157,4.7,-999.0,68,-99.99,,,0.11,Acu-Link.com,2013-05-09 04:05:00,
2013-05-08 23:20:00,64.8,53.6,29.89,SSE,157,5.3,-999.0,67,-99.99,,,0.11,Acu-Link.com,2013-05-09 04:20:00,
2013-05-08 23:35:00,64.6,53.4,29.88,SSE,157,3.7,-999.0,67,-99.99,,,0.11,Acu-Link.com,2013-05-09 04:35:00,
2013-05-08 23:51:00,64.2,53.4,29.89,South,180,2.7,-999.0,68,-99.99,,,0.11,Acu-Link.com,2013-05-09 04:51:00,